createdAt,value
2018-11-10T00:00:27.652Z,67.25
2018-11-10T00:02:56.710Z,65.00
2018-11-10T00:05:25.851Z,66.75
2018-11-10T00:07:54.939Z,63.00
2018-11-10T00:10:29.430Z,57.75
2018-11-10T00:12:58.542Z,66.00
2018-11-10T00:15:28.648Z,56.25
2018-11-10T00:17:57.740Z,58.00
2018-11-10T00:20:26.793Z,49.50
2018-11-10T00:22:55.863Z,56.25
2018-11-10T00:28:16.716Z,57.75
2018-11-10T00:30:45.742Z,49.50
2018-11-10T00:33:14.806Z,53.50
2018-11-10T00:35:44.823Z,46.75
2018-11-10T00:38:13.893Z,54.50
2018-11-10T00:40:43.809Z,49.75
2018-11-10T00:43:12.933Z,65.75
2018-11-10T00:45:42.949Z,61.25
2018-11-10T00:48:12.010Z,59.75
2018-11-10T00:50:41.101Z,50.50
2018-11-10T00:53:10.150Z,59.25
2018-11-10T00:55:39.467Z,61.50
2018-11-10T00:58:08.529Z,51.00
2018-11-10T01:00:37.582Z,50.75
2018-11-10T01:03:06.672Z,51.50
2018-11-10T01:05:35.724Z,56.25
2018-11-10T01:08:07.218Z,48.00
2018-11-10T01:10:36.317Z,51.50
2018-11-10T01:13:05.490Z,48.25
2018-11-10T01:15:34.617Z,45.25
2018-11-10T01:18:03.681Z,54.25
2018-11-10T01:20:32.738Z,49.00
2018-11-10T01:23:01.832Z,51.50
2018-11-10T01:25:30.902Z,47.00
2018-11-10T01:28:00.018Z,40.00
2018-11-10T01:30:29.005Z,49.25
2018-11-10T01:32:58.078Z,41.50
2018-11-10T01:35:27.703Z,49.00
2018-11-10T01:37:56.788Z,46.00
2018-11-10T01:40:25.859Z,50.75
2018-11-10T01:42:54.919Z,51.25
2018-11-10T01:45:23.998Z,42.75
2018-11-10T01:47:53.093Z,39.25
2018-11-10T01:50:22.161Z,43.75
2018-11-10T01:52:52.177Z,49.00
2018-11-10T01:55:21.235Z,43.75
2018-11-10T01:57:50.276Z,48.50
2018-11-10T02:00:19.998Z,41.50
2018-11-10T02:02:49.122Z,41.50
2018-11-10T02:05:18.482Z,40.25
2018-11-10T02:07:47.623Z,45.00
2018-11-10T02:10:16.658Z,42.25
2018-11-10T02:12:46.325Z,52.75
2018-11-10T02:15:16.590Z,40.25
2018-11-10T02:17:45.697Z,42.50
2018-11-10T02:20:15.512Z,40.00
2018-11-10T02:22:44.798Z,40.75
2018-11-10T02:25:14.002Z,40.25
2018-11-10T02:27:43.076Z,39.75
2018-11-10T02:30:12.454Z,45.50
2018-11-10T02:32:41.691Z,35.00
2018-11-10T02:35:11.202Z,45.50
2018-11-10T02:37:40.831Z,38.25
2018-11-10T02:40:12.722Z,40.00
2018-11-10T02:42:41.806Z,41.25
2018-11-10T02:45:12.841Z,42.25
2018-11-10T02:47:42.231Z,31.75
2018-11-10T02:50:11.283Z,42.75
2018-11-10T02:52:40.425Z,35.75
2018-11-10T02:55:10.098Z,39.25
2018-11-10T02:57:39.159Z,37.50
2018-11-10T03:00:09.442Z,32.50
2018-11-10T03:02:38.518Z,38.00
2018-11-10T03:05:08.164Z,38.00
2018-11-10T03:07:37.658Z,42.25
2018-11-10T03:10:07.659Z,37.50
2018-11-10T03:12:37.230Z,37.75
2018-11-10T03:15:07.307Z,37.50
2018-11-10T03:17:36.364Z,35.75
2018-11-10T03:20:06.867Z,42.00
2018-11-10T03:22:35.934Z,40.75
2018-11-10T03:25:05.177Z,37.50
2018-11-10T03:27:34.230Z,32.50
2018-11-10T03:30:03.318Z,32.25
2018-11-10T03:32:32.367Z,34.75
2018-11-10T03:35:01.415Z,34.25
2018-11-10T03:37:30.508Z,39.25
2018-11-10T03:39:59.597Z,31.50
2018-11-10T03:42:28.710Z,31.00
2018-11-10T03:44:57.874Z,35.75
2018-11-10T03:47:26.924Z,41.50
2018-11-10T03:49:56.018Z,29.50
2018-11-10T03:52:25.059Z,34.00
2018-11-10T03:54:54.094Z,34.50
2018-11-10T03:57:24.162Z,31.75
2018-11-10T03:59:53.233Z,33.50
2018-11-10T04:02:22.287Z,29.25
2018-11-10T04:04:51.326Z,35.50
2018-11-10T04:07:20.370Z,36.25
2018-11-10T04:09:49.470Z,32.75
2018-11-10T04:12:18.554Z,36.00
2018-11-10T04:14:47.620Z,32.25
2018-11-10T04:17:16.706Z,31.25
2018-11-10T04:19:45.761Z,30.25
2018-11-10T04:22:14.845Z,27.50
2018-11-10T04:24:43.943Z,27.50
2018-11-10T04:27:12.985Z,30.50
2018-11-10T04:29:42.072Z,29.50
2018-11-10T04:32:11.116Z,33.25
2018-11-10T04:34:40.186Z,36.75
2018-11-10T04:37:09.249Z,33.25
2018-11-10T04:39:38.344Z,29.25
2018-11-10T04:42:07.405Z,28.25
2018-11-10T04:44:36.463Z,25.75
2018-11-10T04:47:05.675Z,26.25
2018-11-10T04:49:34.735Z,30.00
2018-11-10T04:52:03.802Z,27.75
2018-11-10T04:54:32.861Z,24.00
2018-11-10T04:57:01.918Z,30.50
2018-11-10T04:59:30.986Z,26.75
2018-11-10T05:02:00.003Z,33.25
2018-11-10T05:04:29.034Z,25.50
2018-11-10T05:06:58.075Z,32.00
2018-11-10T05:09:27.366Z,31.25
2018-11-10T05:11:56.744Z,26.75
2018-11-10T05:14:26.135Z,27.75
2018-11-10T05:16:55.181Z,24.00
2018-11-10T05:19:24.414Z,27.75
2018-11-10T05:21:54.189Z,27.00
2018-11-10T05:24:23.265Z,25.25
2018-11-10T05:26:54.503Z,29.00
2018-11-10T05:29:23.560Z,31.50
2018-11-10T05:31:52.574Z,26.00
2018-11-10T05:34:21.713Z,30.00
2018-11-10T05:36:50.719Z,29.75
2018-11-10T05:39:19.969Z,24.00
2018-11-10T05:41:49.050Z,29.25
2018-11-10T05:44:18.510Z,27.75
2018-11-10T05:46:49.277Z,26.75
2018-11-10T05:49:18.340Z,25.50
2018-11-10T05:51:47.394Z,22.75
2018-11-10T05:54:16.549Z,28.75
2018-11-10T05:56:45.592Z,22.00
2018-11-10T05:59:14.615Z,25.25
2018-11-10T06:01:43.655Z,28.75
2018-11-10T06:04:12.789Z,30.50
2018-11-10T06:06:41.865Z,32.50
2018-11-10T06:09:11.679Z,29.00
2018-11-10T06:11:41.290Z,28.50
2018-11-10T06:14:10.391Z,28.50
2018-11-10T06:16:41.525Z,27.75
2018-11-10T06:19:10.579Z,24.00
2018-11-10T06:21:39.625Z,25.75
2018-11-10T06:24:08.998Z,18.75
2018-11-10T06:26:38.177Z,27.25
2018-11-10T06:29:07.728Z,20.00
2018-11-10T06:31:37.046Z,22.50
2018-11-10T06:34:06.182Z,24.00
2018-11-10T06:36:41.984Z,24.00
2018-11-10T06:39:11.998Z,25.75
2018-11-10T06:41:43.135Z,24.50
2018-11-10T06:44:12.177Z,21.00
2018-11-10T06:46:41.202Z,22.50
2018-11-10T06:49:10.247Z,22.50
2018-11-10T06:51:40.333Z,22.00
2018-11-10T06:54:09.468Z,23.00
2018-11-10T06:56:39.646Z,24.50
2018-11-10T06:59:09.852Z,20.75
2018-11-10T07:01:40.133Z,22.50
2018-11-10T07:04:09.194Z,18.75
2018-11-10T07:06:39.985Z,19.00
2018-11-10T07:09:14.862Z,24.50
2018-11-10T07:11:49.994Z,19.75
2018-11-10T07:14:19.049Z,21.75
2018-11-10T07:16:48.117Z,20.75
2018-11-10T07:19:19.199Z,22.25
2018-11-10T07:21:48.764Z,21.00
2018-11-10T07:24:17.893Z,21.00
2018-11-10T07:26:46.918Z,20.00
2018-11-10T07:29:15.967Z,18.75
2018-11-10T07:31:45.176Z,21.25
2018-11-10T07:34:14.333Z,17.50
2018-11-10T07:36:43.406Z,19.00
2018-11-10T07:39:13.049Z,19.25
2018-11-10T07:44:17.162Z,22.50
2018-11-10T07:46:47.137Z,17.25
2018-11-10T07:49:17.258Z,24.25
2018-11-10T07:51:47.066Z,24.00
2018-11-10T07:54:18.011Z,21.75
2018-11-10T07:56:47.073Z,15.00
2018-11-10T07:59:16.161Z,17.25
2018-11-10T08:01:45.924Z,18.75
2018-11-10T08:04:16.223Z,17.75
2018-11-10T08:06:45.193Z,19.50
2018-11-10T08:09:15.089Z,15.00
2018-11-10T08:11:44.220Z,19.50
2018-11-10T08:14:13.229Z,17.75
2018-11-10T08:16:42.307Z,17.00
2018-11-10T08:19:15.218Z,18.50
2018-11-10T08:21:44.325Z,17.00
2018-11-10T08:24:13.385Z,15.00
2018-11-10T08:26:42.424Z,17.00
2018-11-10T08:29:11.921Z,16.00
2018-11-10T08:31:41.203Z,20.00
2018-11-10T08:34:10.341Z,16.50
2018-11-10T08:36:39.408Z,15.50
2018-11-10T08:39:10.258Z,15.50
2018-11-10T08:41:39.309Z,16.50
2018-11-10T08:44:08.811Z,15.00
2018-11-10T08:46:37.958Z,17.75
2018-11-10T08:49:08.131Z,15.00
2018-11-10T08:51:37.202Z,14.75
2018-11-10T08:54:06.561Z,16.25
2018-11-10T08:56:35.642Z,15.25
2018-11-10T08:59:04.767Z,16.75
2018-11-10T09:01:33.793Z,17.25
2018-11-10T09:04:02.892Z,19.00
2018-11-10T09:06:31.982Z,15.00
2018-11-10T09:09:01.055Z,20.50
2018-11-10T09:11:31.655Z,13.00
2018-11-10T09:14:01.289Z,13.50
2018-11-10T09:16:30.374Z,15.00
2018-11-10T09:19:00.126Z,18.00
2018-11-10T09:21:29.872Z,13.50
2018-11-10T09:23:58.730Z,17.25
2018-11-10T09:26:28.090Z,14.00
2018-11-10T09:28:57.126Z,16.00
2018-11-10T09:31:26.187Z,13.50
2018-11-10T09:33:55.227Z,13.00
2018-11-10T09:36:24.356Z,18.75
2018-11-10T09:38:53.413Z,14.50
2018-11-10T09:41:22.441Z,13.50
2018-11-10T09:43:51.553Z,13.50
2018-11-10T09:46:20.650Z,15.00
2018-11-10T09:48:49.814Z,15.50
2018-11-10T09:51:19.582Z,15.00
2018-11-10T09:53:48.662Z,15.75
2018-11-10T09:56:19.886Z,15.75
2018-11-10T09:58:50.142Z,16.50
2018-11-10T10:01:20.785Z,16.25
2018-11-10T10:03:49.778Z,21.00
2018-11-10T10:06:18.867Z,14.75
2018-11-10T10:08:47.971Z,18.00
2018-11-10T10:11:17.008Z,18.00
2018-11-10T10:13:46.075Z,14.00
2018-11-10T10:16:15.496Z,19.00
2018-11-10T10:18:44.469Z,17.50
2018-11-10T10:21:14.598Z,15.75
2018-11-10T10:23:43.694Z,18.25
2018-11-10T10:26:12.995Z,19.00
2018-11-10T10:28:42.098Z,15.25
2018-11-10T10:31:11.083Z,16.00
2018-11-10T10:33:40.148Z,16.50
2018-11-10T10:36:09.277Z,15.25
2018-11-10T10:38:38.553Z,20.50
2018-11-10T10:41:07.664Z,17.00
2018-11-10T10:43:36.775Z,16.75
2018-11-10T10:46:05.869Z,16.50
2018-11-10T10:48:34.985Z,20.00
2018-11-10T10:51:04.194Z,17.75
2018-11-10T10:53:33.592Z,20.25
2018-11-10T10:56:02.660Z,20.75
2018-11-10T10:58:33.226Z,20.25
2018-11-10T11:01:08.206Z,22.00
2018-11-10T11:03:42.804Z,20.00
2018-11-10T11:06:11.859Z,18.50
2018-11-10T11:08:40.975Z,24.50
2018-11-10T11:11:11.331Z,21.75
2018-11-10T11:13:40.475Z,23.75
2018-11-10T11:16:10.548Z,28.50
2018-11-10T11:18:39.672Z,26.25
2018-11-10T11:21:08.748Z,27.50
2018-11-10T11:23:37.832Z,27.50
2018-11-10T11:26:06.998Z,26.50
2018-11-10T11:28:36.123Z,28.00
2018-11-10T11:31:05.503Z,23.75
2018-11-10T11:33:34.904Z,26.00
2018-11-10T11:36:04.050Z,29.00
2018-11-10T11:38:33.130Z,28.75
2018-11-10T11:41:02.259Z,29.00
2018-11-10T11:43:31.311Z,29.50
2018-11-10T11:46:00.388Z,29.50
2018-11-10T11:48:29.442Z,27.25
2018-11-10T11:50:58.494Z,30.00
2018-11-10T11:53:27.820Z,27.00
2018-11-10T11:55:56.899Z,26.50
2018-11-10T11:58:26.409Z,30.00
2018-11-10T12:00:55.927Z,33.25
2018-11-10T12:03:25.519Z,33.00
2018-11-10T12:05:54.630Z,29.50
2018-11-10T12:08:23.915Z,32.50
2018-11-10T12:10:55.437Z,31.25
2018-11-10T12:13:24.498Z,28.00
2018-11-10T12:15:53.586Z,25.75
2018-11-10T12:18:22.639Z,29.50
2018-11-10T12:20:51.749Z,35.50
2018-11-10T12:23:23.633Z,34.50
2018-11-10T12:25:52.729Z,33.50
2018-11-10T12:28:21.820Z,30.50
2018-11-10T12:30:51.140Z,31.00
2018-11-10T12:33:21.855Z,32.00
2018-11-10T12:35:50.931Z,34.75
2018-11-10T12:38:20.055Z,31.25
2018-11-10T12:40:49.178Z,36.50
2018-11-10T12:43:18.291Z,38.25
2018-11-10T12:45:47.447Z,33.75
2018-11-10T12:48:16.510Z,42.75
2018-11-10T12:50:46.345Z,31.25
2018-11-10T12:53:15.458Z,32.25
2018-11-10T12:55:44.575Z,37.25
2018-11-10T12:58:13.672Z,38.25
2018-11-10T13:00:42.786Z,32.75
2018-11-10T13:03:11.870Z,34.00
2018-11-10T13:05:41.035Z,30.75
2018-11-10T13:08:10.303Z,28.25
2018-11-10T13:10:39.292Z,31.00
2018-11-10T13:13:09.073Z,27.75
2018-11-10T13:15:38.411Z,32.50
2018-11-10T13:18:07.523Z,26.50
2018-11-10T13:20:36.542Z,30.00
2018-11-10T13:23:05.613Z,25.00
2018-11-10T13:25:34.919Z,26.75
2018-11-10T13:28:04.138Z,29.50
2018-11-10T13:30:33.391Z,24.50
2018-11-10T13:33:02.885Z,24.75
2018-11-10T13:35:31.960Z,27.25
2018-11-10T13:38:01.192Z,25.00
2018-11-10T13:40:30.107Z,25.00
2018-11-10T13:42:59.209Z,20.75
2018-11-10T13:45:28.987Z,19.00
2018-11-10T13:47:58.081Z,20.50
2018-11-10T13:50:27.839Z,24.75
2018-11-10T13:52:57.269Z,22.75
2018-11-10T13:55:25.873Z,17.50
2018-11-10T13:57:54.924Z,20.25
2018-11-10T14:00:23.985Z,37.75
2018-11-10T14:02:53.034Z,17.00
2018-11-10T14:05:22.125Z,19.50
2018-11-10T14:07:51.143Z,18.00
2018-11-10T14:10:20.223Z,20.00
2018-11-10T14:12:49.314Z,18.50
2018-11-10T14:15:18.274Z,20.25
2018-11-10T14:17:47.314Z,16.00
2018-11-10T14:20:16.775Z,22.00
2018-11-10T14:22:46.418Z,16.50
2018-11-10T14:25:16.225Z,18.00
2018-11-10T14:27:46.474Z,16.50
2018-11-10T14:30:16.761Z,19.00
2018-11-10T14:32:46.184Z,19.25
2018-11-10T14:35:15.274Z,21.00
2018-11-10T14:37:44.980Z,18.00
2018-11-10T14:40:15.506Z,19.25
2018-11-10T14:42:48.392Z,19.50
2018-11-10T14:45:18.715Z,18.50
2018-11-10T14:47:47.798Z,22.00
2018-11-10T14:50:17.652Z,25.50
2018-11-10T14:52:49.214Z,22.75
2018-11-10T14:55:18.084Z,30.25
2018-11-10T14:57:47.185Z,28.50
2018-11-10T15:00:19.028Z,28.75
2018-11-10T15:02:48.083Z,30.00
2018-11-10T15:05:17.172Z,32.00
2018-11-10T15:07:46.261Z,38.50
2018-11-10T15:10:16.337Z,47.50
2018-11-10T15:12:45.747Z,44.50
2018-11-10T15:15:15.766Z,36.00
2018-11-10T15:17:45.319Z,30.25
2018-11-10T15:20:15.733Z,27.75
2018-11-10T15:22:44.854Z,22.00
2018-11-10T15:25:15.850Z,21.75
2018-11-10T15:27:44.999Z,26.75
2018-11-10T15:30:15.624Z,25.00
2018-11-10T15:32:45.497Z,21.75
2018-11-10T15:35:16.134Z,21.00
2018-11-10T15:37:49.955Z,20.75
2018-11-10T15:40:19.735Z,18.25
2018-11-10T15:42:49.662Z,22.00
2018-11-10T15:45:19.998Z,24.50
2018-11-10T15:47:49.045Z,21.00
2018-11-10T15:50:18.898Z,17.25
2018-11-10T15:52:48.025Z,18.75
2018-11-10T15:55:17.088Z,19.25
2018-11-10T15:57:46.161Z,21.50
2018-11-10T16:00:16.836Z,20.00
2018-11-10T16:02:45.955Z,20.25
2018-11-10T16:05:15.457Z,24.25
2018-11-10T16:07:44.566Z,22.50
2018-11-10T16:10:13.793Z,18.75
2018-11-10T16:12:42.781Z,18.00
2018-11-10T16:15:13.752Z,20.25
2018-11-10T16:17:42.979Z,23.50
2018-11-10T16:20:15.096Z,18.50
2018-11-10T16:22:46.780Z,17.50
2018-11-10T16:25:16.186Z,18.00
2018-11-10T16:27:45.639Z,23.25
2018-11-10T16:30:15.926Z,34.75
2018-11-10T16:32:46.526Z,29.50
2018-11-10T16:35:15.938Z,24.00
2018-11-10T16:37:45.012Z,25.75
2018-11-10T16:40:16.724Z,23.50
2018-11-10T16:42:47.532Z,29.75
2018-11-10T16:45:17.460Z,22.25
2018-11-10T16:47:46.531Z,21.75
2018-11-10T16:50:15.636Z,19.50
2018-11-10T16:52:45.475Z,18.50
2018-11-10T16:55:14.531Z,20.25
2018-11-10T16:57:43.562Z,21.25
2018-11-10T17:00:14.795Z,19.50
2018-11-10T17:02:44.052Z,26.50
2018-11-10T17:05:13.075Z,16.25
2018-11-10T17:07:42.138Z,21.75
2018-11-10T17:10:14.421Z,19.50
2018-11-10T17:12:43.637Z,17.50
2018-11-10T17:15:12.749Z,26.75
2018-11-10T17:17:41.785Z,22.00
2018-11-10T17:20:13.131Z,23.00
2018-11-10T17:22:42.855Z,45.00
2018-11-10T17:25:12.607Z,49.00
2018-11-10T17:27:42.149Z,35.00
2018-11-10T17:30:13.998Z,36.50
2018-11-10T17:32:43.199Z,39.00
2018-11-10T17:35:12.992Z,27.75
2018-11-10T17:37:42.390Z,21.25
2018-11-10T17:40:12.412Z,27.75
2018-11-10T17:42:51.890Z,28.25
2018-11-10T17:45:20.961Z,30.50
2018-11-10T17:47:50.008Z,34.25
2018-11-10T17:50:19.411Z,29.25
2018-11-10T17:52:48.529Z,71.00
2018-11-10T17:55:18.164Z,83.50
2018-11-10T17:57:47.744Z,51.00
2018-11-10T18:00:16.707Z,70.00
2018-11-10T18:02:45.750Z,64.50
2018-11-10T18:05:16.118Z,125.50
2018-11-10T18:07:45.352Z,90.75
2018-11-10T18:10:17.542Z,200.25
2018-11-10T18:12:47.903Z,104.75
2018-11-10T18:15:17.063Z,84.00
2018-11-10T18:17:46.236Z,81.00
2018-11-10T18:20:16.536Z,41.00
2018-11-10T18:22:46.986Z,42.25
2018-11-10T18:25:16.160Z,33.50
2018-11-10T18:27:45.135Z,31.00
2018-11-10T18:30:15.138Z,23.00
2018-11-10T18:32:44.695Z,28.25
2018-11-10T18:35:14.252Z,47.00
2018-11-10T18:37:43.477Z,60.25
2018-11-10T18:40:12.546Z,45.00
2018-11-10T18:42:41.597Z,30.00
2018-11-10T18:45:11.505Z,24.75
2018-11-10T18:47:41.008Z,28.00
2018-11-10T18:50:12.127Z,27.75
2018-11-10T18:52:41.437Z,27.75
2018-11-10T18:55:10.926Z,30.00
2018-11-10T18:57:40.172Z,23.00
2018-11-10T19:00:11.278Z,30.75
2018-11-10T19:02:41.194Z,28.50
2018-11-10T19:05:11.613Z,35.50
2018-11-10T19:07:40.707Z,33.25
2018-11-10T19:10:11.600Z,48.50
2018-11-10T19:12:41.290Z,70.75
2018-11-10T19:15:12.791Z,70.75
2018-11-10T19:17:41.978Z,45.50
2018-11-10T19:20:11.730Z,34.25
2018-11-10T19:22:40.835Z,35.75
2018-11-10T19:25:11.330Z,30.25
2018-11-10T19:27:40.421Z,37.50
2018-11-10T19:30:12.439Z,30.50
2018-11-10T19:32:42.311Z,29.25
2018-11-10T19:35:11.934Z,32.00
2018-11-10T19:37:40.947Z,37.75
2018-11-10T19:40:10.855Z,42.50
2018-11-10T19:42:40.338Z,36.75
2018-11-10T19:45:09.947Z,47.75
2018-11-10T19:47:39.881Z,36.50
2018-11-10T19:50:09.301Z,44.75
2018-11-10T19:52:38.343Z,76.25
2018-11-10T19:55:09.875Z,68.75
2018-11-10T19:57:38.921Z,64.75
2018-11-10T20:00:13.628Z,55.00
2018-11-10T20:02:44.105Z,69.00
2018-11-10T20:05:13.972Z,100.50
2018-11-10T20:07:43.125Z,88.75
2018-11-10T20:10:12.594Z,110.50
2018-11-10T20:12:42.095Z,96.00
2018-11-10T20:15:12.952Z,98.50
2018-11-10T20:17:42.439Z,58.50
2018-11-10T20:20:12.606Z,50.00
2018-11-10T20:22:42.581Z,29.00
2018-11-10T20:25:14.047Z,29.25
2018-11-10T20:27:43.113Z,33.75
2018-11-10T20:30:14.598Z,23.75
2018-11-10T20:32:44.564Z,30.00
2018-11-10T20:35:14.098Z,34.50
2018-11-10T20:37:43.733Z,26.25
2018-11-10T20:40:13.851Z,30.75
2018-11-10T20:42:45.069Z,21.75
2018-11-10T20:45:16.110Z,18.75
2018-11-10T20:47:45.173Z,19.00
2018-11-10T20:50:14.815Z,18.75
2018-11-10T20:52:43.938Z,22.00
2018-11-10T20:55:13.543Z,23.00
2018-11-10T20:57:42.602Z,20.50
2018-11-10T21:00:14.609Z,20.25
2018-11-10T21:02:44.099Z,19.75
2018-11-10T21:05:14.324Z,21.50
2018-11-10T21:07:43.451Z,24.50
2018-11-10T21:10:14.395Z,24.50
2018-11-10T21:12:44.104Z,22.00
2018-11-10T21:15:13.592Z,20.75
2018-11-10T21:17:42.831Z,25.50
2018-11-10T21:20:12.812Z,24.00
2018-11-10T21:22:41.916Z,28.25
2018-11-10T21:25:12.633Z,26.25
2018-11-10T21:27:42.374Z,27.25
2018-11-10T21:30:12.856Z,27.25
2018-11-10T21:32:43.912Z,30.75
2018-11-10T21:35:13.038Z,28.75
2018-11-10T21:37:42.058Z,28.00
2018-11-10T21:40:14.268Z,28.00
2018-11-10T21:42:43.835Z,19.50
2018-11-10T21:45:13.698Z,24.75
2018-11-10T21:47:42.914Z,23.25
2018-11-10T21:50:14.176Z,27.75
2018-11-10T21:52:43.965Z,27.00
2018-11-10T21:55:15.231Z,30.75
2018-11-10T21:57:45.150Z,40.50
2018-11-10T22:00:16.500Z,29.00
2018-11-10T22:02:48.950Z,27.50
2018-11-10T22:05:18.350Z,29.75
2018-11-10T22:07:47.390Z,28.00
2018-11-10T22:10:17.699Z,31.50
2018-11-10T22:12:47.082Z,29.00
2018-11-10T22:15:17.549Z,39.75
2018-11-10T22:17:46.780Z,37.00
2018-11-10T22:20:17.339Z,30.75
2018-11-10T22:22:46.446Z,39.75
2018-11-10T22:25:15.843Z,40.50
2018-11-10T22:27:46.281Z,35.50
2018-11-10T22:30:16.714Z,39.00
2018-11-10T22:32:46.430Z,36.75
2018-11-10T22:35:15.507Z,44.25
2018-11-10T22:37:44.570Z,42.50
2018-11-10T22:40:15.057Z,44.00
2018-11-10T22:42:44.565Z,49.00
2018-11-10T22:45:15.020Z,45.75
2018-11-10T22:47:44.184Z,43.50
2018-11-10T22:50:16.037Z,41.75
2018-11-10T22:52:46.928Z,42.25
2018-11-10T22:55:16.002Z,42.25
2018-11-10T22:57:45.081Z,51.50
2018-11-10T23:00:18.350Z,48.25
2018-11-10T23:02:51.650Z,49.25
2018-11-10T23:05:21.361Z,49.25
2018-11-10T23:07:50.426Z,57.75
2018-11-10T23:10:19.676Z,54.50
2018-11-10T23:12:50.400Z,47.00
2018-11-10T23:15:19.471Z,50.50
2018-11-10T23:17:48.544Z,45.50
2018-11-10T23:20:18.594Z,42.00
2018-11-10T23:22:47.722Z,42.50
2018-11-10T23:25:17.725Z,40.25
2018-11-10T23:27:46.773Z,41.50
2018-11-10T23:30:17.834Z,39.75
2018-11-10T23:32:46.873Z,36.00
2018-11-10T23:35:15.927Z,41.50
2018-11-10T23:37:44.996Z,37.50
2018-11-10T23:40:15.107Z,39.50
2018-11-10T23:42:44.338Z,40.75
2018-11-10T23:45:14.177Z,46.00
2018-11-10T23:47:43.286Z,37.50
2018-11-10T23:50:13.702Z,37.25
2018-11-10T23:52:42.753Z,43.75
2018-11-10T23:55:13.542Z,39.50
2018-11-10T23:57:42.597Z,37.75
